METAR AND TAF INFORMATION
METAR FOR LFLS
ADDS - METARS form results

(0343 UTC 07 October 2022)
Data provider http://aviationweather.gov/metar/data/
 
METAR text: LFLS 070330Z AUTO 04002KT 9999 OVC015 11/11 Q1026 TEMPO 0500 FG VV///
Conditions at: LFLS (GRENOBLE/ST. GEO, FR) observed 0330 UTC 07 October 2022
Temperature: 11.0°C (52°F)
Dewpoint: 11.0°C (52°F) [RH = 100%]
Pressure (altimeter): 30.30 inches Hg (1026.0 mb)
Winds: from the NE (40 degrees) at 2 MPH (2 knots; 1.0 m/s)
Visibility: 6 or more miles (10+ km)
Ceiling: 1500 feet AGL
Clouds: overcast cloud deck at 1500 feet AGL
Weather: no significant weather observed at this time

METAR text: LFLS 070300Z AUTO VRB02KT 9999 OVC016 11/11 Q1027 TEMPO 0500 FG VV///
Conditions at: LFLS (GRENOBLE/ST. GEO, FR) observed 0300 UTC 07 October 2022
Temperature: 11.0°C (52°F)
Dewpoint: 11.0°C (52°F) [RH = 100%]
Pressure (altimeter): 30.32 inches Hg (1027.0 mb)
Winds: variable direction winds at 2 MPH (2 knots; 1.0 m/s)
Visibility: 6 or more miles (10+ km)
Ceiling: 1600 feet AGL
Clouds: overcast cloud deck at 1600 feet AGL
Weather: no significant weather observed at this time

Forecast for: LFLS (GRENOBLE/ST. GEO, FR)
Text: TAF LFLS 070200Z 0703/0803 09005KT CAVOK
Forecast period: 0300 UTC 07 October 2022 to 0300 UTC 08 October 2022
Forecast type: FROM: standard forecast or significant change
Winds: from the E (90 degrees) at 6 MPH (5 knots; 2.6 m/s)
Visibility: 6 or more miles (10+ km)
Ceiling: unknown
Clouds: missing
Weather: NSW  (no significant weather)
Text: TEMPO 0703/0712 BKN014
Forecast period: 0300 to 1200 UTC 07 October 2022
Forecast type: TEMPORARY: The following changes expected for less than half the time period
Visibility: missing
Ceiling: 1400 feet AGL
Clouds: broken clouds at 1400 feet AGL
Weather: no significant weather forecast for this period
Text: PROB40
Forecast period: 0300 to 0900 UTC 07 October 2022
Forecast type: TEMPORARY: The following changes expected for less than half the time period
Visibility: 0.31 miles (0.50 km)
Ceiling: unknown
Clouds: missing
Weather: FG  (fog)

 AIRPORT MAP

 RUNWAY INFORMATION
Runway 09 Runway length 10007 ft Runway width 148 ft
Runway elevation 1224 ft Runway displaced threshold 0 ft Runway heading 90
Runway 27 Runway length 10007 ft Runway width 148 ft
Runway elevation 1302 ft Runway displaced threshold 0 ft Runway heading 270

 AIRPORT FREQUENCIES
Type APP Name GRENOBLE A Frequency 119.3 MHZ
Type ATIS Name GRENOBLE A Frequency 125.725 MHZ
Type GND Name GRENOBLE G Frequency 121.925 MHZ
Type TWR Name GRENOBLE T Frequency 119.3 MHZ

 AIRPORT NEAR NAVIGATION AIDS



Powered by Virtual Airlines Manager [v2.6.2]